createdAt,value
2022-12-04T00:00:13.652Z,31.00
2022-12-04T00:01:13.643Z,32.00
2022-12-04T00:02:13.639Z,31.80
2022-12-04T00:03:13.750Z,31.30
2022-12-04T00:04:13.721Z,31.10
2022-12-04T00:05:13.760Z,30.20
2022-12-04T00:06:13.611Z,30.90
2022-12-04T00:07:13.603Z,32.10
2022-12-04T00:08:13.675Z,31.30
2022-12-04T00:09:13.606Z,31.40
2022-12-04T00:10:13.584Z,29.20
2022-12-04T00:11:13.576Z,30.10
2022-12-04T00:12:13.573Z,30.90
2022-12-04T00:13:13.561Z,31.70
2022-12-04T00:14:13.559Z,30.00
2022-12-04T00:15:25.340Z,28.40
2022-12-04T00:16:13.591Z,29.80
2022-12-04T00:17:13.535Z,31.70
2022-12-04T00:18:13.531Z,30.20
2022-12-04T00:19:13.530Z,31.60
2022-12-04T00:20:13.515Z,29.30
2022-12-04T00:21:13.514Z,31.30
2022-12-04T00:22:13.503Z,32.00
2022-12-04T00:23:13.494Z,32.50
2022-12-04T00:24:13.490Z,31.80
2022-12-04T00:25:13.624Z,31.80
2022-12-04T00:26:13.474Z,31.00
2022-12-04T00:27:13.468Z,31.40
2022-12-04T00:28:13.463Z,31.00
2022-12-04T00:29:13.453Z,32.50
2022-12-04T00:30:13.447Z,31.50
2022-12-04T00:31:13.464Z,30.20
2022-12-04T00:32:13.438Z,29.20
2022-12-04T00:33:13.424Z,30.80
2022-12-04T00:34:13.421Z,31.30
2022-12-04T00:35:13.418Z,30.60
2022-12-04T00:36:13.404Z,30.90
2022-12-04T00:37:13.406Z,29.80
2022-12-04T00:38:13.390Z,32.20
2022-12-04T00:39:13.388Z,31.10
2022-12-04T00:40:13.387Z,31.50
2022-12-04T00:41:13.392Z,33.60
2022-12-04T00:42:13.364Z,30.40
2022-12-04T00:43:13.361Z,30.50
2022-12-04T00:44:13.349Z,32.00
2022-12-04T00:45:13.346Z,30.60
2022-12-04T00:46:13.434Z,30.00
2022-12-04T00:47:13.333Z,31.30
2022-12-04T00:48:13.329Z,30.00
2022-12-04T00:49:13.320Z,32.40
2022-12-04T00:50:13.314Z,32.60
2022-12-04T00:51:13.307Z,32.10
2022-12-04T00:52:13.296Z,30.50
2022-12-04T00:53:13.291Z,29.40
2022-12-04T00:54:13.289Z,30.00
2022-12-04T00:55:13.279Z,29.80
2022-12-04T00:56:13.271Z,28.90
2022-12-04T00:57:13.286Z,30.40
2022-12-04T00:58:13.256Z,27.20
2022-12-04T00:59:13.251Z,29.50
2022-12-04T01:00:13.241Z,30.10
2022-12-04T01:01:13.305Z,28.30
2022-12-04T01:02:13.230Z,29.20
2022-12-04T01:03:13.290Z,29.10
2022-12-04T01:04:13.215Z,29.90
2022-12-04T01:05:13.210Z,29.30
2022-12-04T01:06:13.204Z,30.30
2022-12-04T01:07:13.200Z,29.90
2022-12-04T01:08:13.290Z,32.60
2022-12-04T01:09:13.182Z,30.70
2022-12-04T01:10:13.175Z,31.40
2022-12-04T01:11:13.171Z,31.00
2022-12-04T01:12:19.051Z,30.90
2022-12-04T01:13:13.295Z,30.40
2022-12-04T01:14:13.154Z,29.50
2022-12-04T01:15:13.144Z,29.50
2022-12-04T01:16:13.188Z,31.30
2022-12-04T01:17:13.131Z,30.90
2022-12-04T01:18:13.146Z,32.30
2022-12-04T01:19:13.121Z,30.00
2022-12-04T01:20:13.107Z,29.30
2022-12-04T01:21:13.103Z,28.90
2022-12-04T01:22:13.097Z,28.40
2022-12-04T01:23:13.092Z,30.90
2022-12-04T01:24:13.079Z,30.30
2022-12-04T01:25:13.083Z,30.00
2022-12-04T01:26:13.075Z,30.60
2022-12-04T01:27:13.067Z,28.90
2022-12-04T01:28:13.054Z,30.30
2022-12-04T01:29:13.074Z,31.20
2022-12-04T01:30:13.161Z,30.40
2022-12-04T01:31:13.102Z,30.80
2022-12-04T01:32:13.144Z,32.00
2022-12-04T01:33:13.020Z,31.80
2022-12-04T01:34:13.012Z,34.00
2022-12-04T01:35:13.007Z,31.40
2022-12-04T01:36:12.997Z,32.20
2022-12-04T01:37:12.998Z,35.00
2022-12-04T01:38:12.986Z,33.60
2022-12-04T01:39:12.979Z,32.80
2022-12-04T01:40:12.973Z,31.30
2022-12-04T01:41:12.966Z,32.00
2022-12-04T01:42:12.966Z,29.90
2022-12-04T01:43:12.953Z,30.80
2022-12-04T01:44:12.944Z,31.10
2022-12-04T01:45:12.958Z,31.00
2022-12-04T01:46:13.052Z,30.20
2022-12-04T01:47:12.926Z,33.40
2022-12-04T01:48:12.915Z,31.60
2022-12-04T01:49:12.911Z,33.50
2022-12-04T01:50:12.905Z,31.90
2022-12-04T01:51:12.897Z,31.70
2022-12-04T01:52:12.889Z,32.80
2022-12-04T01:53:12.888Z,30.20
2022-12-04T01:54:12.874Z,29.50
2022-12-04T01:55:12.867Z,31.00
2022-12-04T01:56:12.860Z,33.70
2022-12-04T01:57:12.857Z,31.60
2022-12-04T01:58:12.849Z,30.80
2022-12-04T01:59:12.842Z,33.00
2022-12-04T02:00:12.834Z,31.30
2022-12-04T02:01:12.929Z,32.20
2022-12-04T02:02:12.951Z,30.80
2022-12-04T02:03:12.924Z,31.40
2022-12-04T02:04:12.804Z,29.20
2022-12-04T02:05:12.805Z,31.40
2022-12-04T02:06:12.792Z,31.90
2022-12-04T02:07:12.787Z,30.60
2022-12-04T02:08:12.822Z,32.20
2022-12-04T02:09:12.771Z,31.40
2022-12-04T02:10:12.763Z,31.60
2022-12-04T02:11:12.769Z,31.70
2022-12-04T02:12:12.754Z,32.20
2022-12-04T02:13:12.747Z,33.60
2022-12-04T02:14:12.736Z,31.50
2022-12-04T02:15:12.737Z,34.20
2022-12-04T02:16:12.793Z,31.70
2022-12-04T02:17:12.738Z,33.40
2022-12-04T02:18:12.707Z,33.90
2022-12-04T02:19:12.702Z,36.20
2022-12-04T02:20:12.706Z,32.70
2022-12-04T02:21:12.692Z,33.60
2022-12-04T02:22:12.681Z,32.50
2022-12-04T02:23:12.689Z,30.40
2022-12-04T02:24:12.669Z,33.20
2022-12-04T02:25:12.670Z,34.70
2022-12-04T02:26:12.676Z,34.30
2022-12-04T02:27:12.652Z,31.00
2022-12-04T02:28:12.639Z,34.50
2022-12-04T02:29:12.635Z,33.80
2022-12-04T02:30:12.647Z,34.20
2022-12-04T02:31:12.691Z,31.60
2022-12-04T02:32:12.613Z,32.60
2022-12-04T02:33:12.630Z,31.60
2022-12-04T02:34:12.599Z,31.80
2022-12-04T02:35:12.593Z,31.30
2022-12-04T02:36:12.584Z,32.10
2022-12-04T02:37:12.579Z,31.90
2022-12-04T02:38:12.575Z,31.60
2022-12-04T02:39:12.562Z,29.60
2022-12-04T02:40:12.558Z,30.70
2022-12-04T02:41:12.552Z,34.40
2022-12-04T02:42:12.545Z,33.30
2022-12-04T02:43:12.534Z,31.00
2022-12-04T02:44:12.529Z,30.20
2022-12-04T02:45:12.521Z,31.60
2022-12-04T02:46:12.606Z,31.50
2022-12-04T02:47:12.508Z,32.50
2022-12-04T02:48:12.501Z,31.20
2022-12-04T02:49:12.515Z,31.80
2022-12-04T02:50:12.491Z,31.40
2022-12-04T02:51:12.480Z,31.60
2022-12-04T02:52:12.474Z,31.10
2022-12-04T02:53:12.467Z,31.20
2022-12-04T02:54:12.462Z,32.20
2022-12-04T02:55:12.450Z,32.20
2022-12-04T02:56:12.450Z,30.60
2022-12-04T02:57:12.438Z,31.80
2022-12-04T02:58:12.436Z,31.00
2022-12-04T02:59:12.423Z,32.00
2022-12-04T03:00:12.420Z,32.20
2022-12-04T03:01:12.459Z,32.00
2022-12-04T03:02:12.452Z,33.30
2022-12-04T03:03:12.396Z,30.80
2022-12-04T03:04:12.391Z,31.70
2022-12-04T03:05:12.406Z,32.00
2022-12-04T03:06:12.377Z,32.40
2022-12-04T03:07:12.369Z,34.40
2022-12-04T03:08:12.461Z,35.50
2022-12-04T03:09:12.354Z,31.90
2022-12-04T03:10:12.350Z,32.30
2022-12-04T03:11:12.347Z,32.30
2022-12-04T03:12:12.339Z,32.80
2022-12-04T03:13:12.325Z,31.10
2022-12-04T03:14:12.323Z,31.20
2022-12-04T03:15:12.315Z,30.70
2022-12-04T03:16:12.417Z,31.70
2022-12-04T03:17:12.482Z,33.10
2022-12-04T03:18:12.298Z,31.60
2022-12-04T03:19:12.285Z,30.90
2022-12-04T03:20:12.386Z,31.20
2022-12-04T03:21:12.293Z,32.40
2022-12-04T03:22:12.270Z,31.90
2022-12-04T03:23:12.258Z,31.20
2022-12-04T03:24:12.501Z,33.20
2022-12-04T03:25:12.247Z,32.50
2022-12-04T03:26:12.240Z,32.40
2022-12-04T03:27:12.233Z,31.20
2022-12-04T03:28:12.228Z,32.80
2022-12-04T03:29:12.216Z,31.20
2022-12-04T03:30:12.210Z,32.20
2022-12-04T03:31:12.297Z,31.40
2022-12-04T03:32:12.206Z,30.80
2022-12-04T03:33:12.187Z,31.60
2022-12-04T03:34:12.185Z,32.10
2022-12-04T03:35:12.272Z,35.30
2022-12-04T03:36:12.182Z,33.60
2022-12-04T03:37:12.179Z,32.00
2022-12-04T03:38:12.156Z,31.70
2022-12-04T03:39:12.145Z,29.60
2022-12-04T03:40:12.165Z,30.30
2022-12-04T03:41:12.133Z,31.10
2022-12-04T03:42:12.133Z,31.30
2022-12-04T03:43:12.120Z,31.50
2022-12-04T03:44:12.113Z,31.80
2022-12-04T03:45:12.105Z,32.10
2022-12-04T03:46:12.160Z,32.40
2022-12-04T03:47:12.099Z,32.00
2022-12-04T03:48:12.088Z,34.70
2022-12-04T03:49:12.081Z,31.40
2022-12-04T03:50:12.077Z,32.90
2022-12-04T03:51:12.064Z,29.10
2022-12-04T03:52:12.058Z,33.30
2022-12-04T03:53:12.072Z,32.10
2022-12-04T03:54:12.046Z,29.60
2022-12-04T03:55:12.142Z,30.00
2022-12-04T03:56:12.031Z,31.50
2022-12-04T03:57:12.034Z,29.30
2022-12-04T03:58:12.017Z,30.70
2022-12-04T03:59:12.012Z,29.70
2022-12-04T04:00:12.003Z,30.00
2022-12-04T04:01:12.049Z,29.60
2022-12-04T04:02:12.014Z,29.80
2022-12-04T04:03:11.983Z,30.90
2022-12-04T04:04:11.974Z,31.00
2022-12-04T04:05:11.965Z,31.70
2022-12-04T04:06:11.961Z,31.30
2022-12-04T04:07:11.958Z,29.90
2022-12-04T04:08:12.034Z,30.60
2022-12-04T04:09:11.962Z,29.90
2022-12-04T04:10:11.944Z,30.10
2022-12-04T04:11:11.927Z,30.60
2022-12-04T04:12:11.923Z,30.80
2022-12-04T04:13:11.911Z,29.00
2022-12-04T04:14:11.910Z,29.90
2022-12-04T04:15:11.907Z,30.00
2022-12-04T04:16:11.991Z,30.60
2022-12-04T04:17:11.884Z,29.70
2022-12-04T04:18:11.879Z,29.50
2022-12-04T04:19:11.872Z,29.50
2022-12-04T04:20:11.868Z,29.60
2022-12-04T04:21:11.855Z,29.60
2022-12-04T04:22:11.851Z,30.80
2022-12-04T04:23:11.843Z,29.60
2022-12-04T04:24:11.838Z,29.50
2022-12-04T04:25:11.852Z,27.70
2022-12-04T04:26:11.824Z,28.50
2022-12-04T04:27:11.814Z,30.70
2022-12-04T04:28:11.810Z,28.00
2022-12-04T04:29:11.798Z,28.60
2022-12-04T04:30:11.796Z,29.00
2022-12-04T04:31:11.905Z,28.30
2022-12-04T04:32:11.785Z,28.60
2022-12-04T04:33:11.783Z,29.00
2022-12-04T04:34:11.771Z,29.80
2022-12-04T04:35:11.759Z,29.80
2022-12-04T04:36:11.755Z,28.90
2022-12-04T04:37:11.745Z,28.60
2022-12-04T04:38:11.740Z,28.10
2022-12-04T04:39:11.733Z,26.90
2022-12-04T04:40:11.814Z,27.60
2022-12-04T04:41:11.741Z,27.90
2022-12-04T04:42:11.710Z,29.50
2022-12-04T04:43:11.705Z,31.20
2022-12-04T04:44:11.702Z,28.50
2022-12-04T04:45:11.688Z,28.50
2022-12-04T04:46:11.749Z,28.10
2022-12-04T04:47:11.678Z,26.90
2022-12-04T04:48:11.670Z,26.80
2022-12-04T04:49:11.665Z,27.40
2022-12-04T04:50:11.657Z,28.40
2022-12-04T04:51:11.648Z,29.70
2022-12-04T04:52:11.649Z,28.00
2022-12-04T04:53:11.633Z,27.30
2022-12-04T04:54:11.626Z,26.80
2022-12-04T04:55:11.742Z,27.10
2022-12-04T04:56:11.613Z,27.20
2022-12-04T04:57:11.627Z,25.60
2022-12-04T04:58:11.598Z,28.50
2022-12-04T04:59:11.591Z,28.90
2022-12-04T05:00:11.587Z,27.80
2022-12-04T05:01:11.744Z,27.00
2022-12-04T05:02:11.733Z,26.60
2022-12-04T05:03:11.639Z,25.70
2022-12-04T05:04:11.555Z,27.50
2022-12-04T05:05:11.551Z,26.40
2022-12-04T05:06:11.546Z,27.20
2022-12-04T05:07:11.534Z,27.30
2022-12-04T05:08:11.580Z,27.20
2022-12-04T05:09:11.521Z,26.50
2022-12-04T05:10:11.516Z,27.90
2022-12-04T05:11:11.509Z,27.70
2022-12-04T05:12:11.500Z,26.20
2022-12-04T05:13:11.512Z,26.30
2022-12-04T05:14:11.487Z,25.80
2022-12-04T05:15:11.479Z,25.80
2022-12-04T05:16:11.672Z,26.40
2022-12-04T05:17:12.981Z,25.30
2022-12-04T05:18:11.457Z,25.30
2022-12-04T05:19:11.459Z,28.00
2022-12-04T05:20:11.451Z,24.60
2022-12-04T05:21:11.434Z,24.60
2022-12-04T05:22:11.430Z,25.20
2022-12-04T05:23:11.418Z,24.70
2022-12-04T05:24:11.415Z,24.70
2022-12-04T05:25:11.404Z,24.70
2022-12-04T05:26:11.406Z,25.50
2022-12-04T05:27:11.393Z,26.50
2022-12-04T05:28:11.383Z,25.50
2022-12-04T05:29:11.599Z,25.20
2022-12-04T05:30:11.373Z,24.90
2022-12-04T05:31:11.433Z,24.10
2022-12-04T05:32:11.353Z,23.90
2022-12-04T05:33:11.345Z,23.70
2022-12-04T05:34:11.340Z,24.00
2022-12-04T05:35:11.879Z,23.00
2022-12-04T05:36:11.329Z,23.00
2022-12-04T05:37:11.316Z,23.40
2022-12-04T05:38:11.312Z,23.10
2022-12-04T05:39:11.303Z,22.80
2022-12-04T05:40:11.299Z,22.50
2022-12-04T05:41:11.287Z,22.20
2022-12-04T05:42:11.290Z,22.30
2022-12-04T05:43:11.277Z,22.60
2022-12-04T05:44:11.268Z,21.40
2022-12-04T05:45:11.286Z,21.50
2022-12-04T05:46:11.362Z,21.70
2022-12-04T05:47:11.409Z,23.50
2022-12-04T05:48:11.244Z,22.90
2022-12-04T05:49:11.236Z,21.80
2022-12-04T05:50:11.224Z,21.20
2022-12-04T05:51:11.215Z,20.50
2022-12-04T05:52:11.212Z,20.30
2022-12-04T05:53:11.204Z,21.20
2022-12-04T05:54:11.200Z,20.30
2022-12-04T05:55:11.187Z,20.20
2022-12-04T05:56:11.182Z,20.40
2022-12-04T05:57:11.174Z,20.50
2022-12-04T05:58:11.170Z,20.60
2022-12-04T05:59:11.160Z,21.20
2022-12-04T06:00:11.154Z,20.60
2022-12-04T06:01:11.197Z,21.00
2022-12-04T06:02:11.217Z,22.50
2022-12-04T06:03:11.235Z,20.40
2022-12-04T06:04:11.126Z,20.40
2022-12-04T06:05:11.133Z,21.90
2022-12-04T06:06:14.852Z,21.30
2022-12-04T06:07:11.106Z,21.20
2022-12-04T06:08:11.154Z,22.80
2022-12-04T06:09:11.093Z,22.20
2022-12-04T06:10:11.088Z,21.50
2022-12-04T06:11:11.072Z,20.40
2022-12-04T06:12:11.067Z,20.40
2022-12-04T06:13:11.060Z,20.20
2022-12-04T06:14:11.055Z,22.30
2022-12-04T06:15:11.048Z,20.80
2022-12-04T06:16:11.073Z,21.30
2022-12-04T06:17:11.058Z,21.30
2022-12-04T06:18:11.038Z,22.40
2022-12-04T06:19:11.021Z,22.60
2022-12-04T06:20:11.799Z,22.60
2022-12-04T06:21:11.001Z,21.90
2022-12-04T06:22:10.993Z,20.30
2022-12-04T06:23:10.988Z,21.60
2022-12-04T06:24:10.977Z,22.30
2022-12-04T06:25:10.972Z,20.90
2022-12-04T06:26:10.964Z,22.00
2022-12-04T06:27:27.228Z,22.40
2022-12-04T06:28:10.949Z,21.80
2022-12-04T06:29:10.941Z,21.30
2022-12-04T06:30:10.935Z,23.20
2022-12-04T06:31:10.939Z,21.70
2022-12-04T06:32:12.987Z,20.80
2022-12-04T06:33:10.933Z,21.80
2022-12-04T06:34:11.419Z,18.90
2022-12-04T06:35:10.897Z,21.00
2022-12-04T06:36:10.888Z,21.50
2022-12-04T06:37:10.887Z,20.70
2022-12-04T06:38:10.880Z,19.60
2022-12-04T06:39:14.136Z,21.10
2022-12-04T06:40:10.866Z,21.90
2022-12-04T06:41:10.854Z,20.00
2022-12-04T06:42:10.852Z,20.20
2022-12-04T06:43:10.844Z,20.30
2022-12-04T06:44:10.836Z,20.40
2022-12-04T06:45:10.834Z,20.70
2022-12-04T06:46:10.996Z,20.70
2022-12-04T06:47:10.864Z,19.80
2022-12-04T06:48:10.807Z,20.00
2022-12-04T06:49:10.821Z,18.80
2022-12-04T06:50:10.793Z,18.30
2022-12-04T06:51:10.786Z,17.20
2022-12-04T06:52:10.775Z,18.60
2022-12-04T06:53:10.770Z,17.90
2022-12-04T06:54:10.763Z,17.80
2022-12-04T06:55:10.756Z,18.40
2022-12-04T06:56:10.748Z,16.90
2022-12-04T06:57:10.742Z,17.00
2022-12-04T06:58:10.733Z,17.40
2022-12-04T06:59:10.728Z,17.10
2022-12-04T07:00:10.717Z,16.70
2022-12-04T07:01:10.843Z,19.20
2022-12-04T07:02:10.797Z,17.50
2022-12-04T07:03:10.698Z,16.40
2022-12-04T07:04:10.688Z,17.20
2022-12-04T07:05:10.705Z,16.00
2022-12-04T07:06:10.675Z,15.70
2022-12-04T07:07:10.675Z,15.20
2022-12-04T07:08:10.697Z,15.10
2022-12-04T07:09:10.656Z,14.80
2022-12-04T07:10:10.644Z,14.50
2022-12-04T07:11:10.638Z,14.90
2022-12-04T07:12:10.634Z,14.20
2022-12-04T07:13:10.624Z,14.70
2022-12-04T07:14:10.619Z,13.80
2022-12-04T07:15:10.612Z,13.30
2022-12-04T07:16:10.637Z,13.60
2022-12-04T07:17:10.685Z,13.50
2022-12-04T07:18:10.587Z,13.40
2022-12-04T07:19:10.589Z,13.40
2022-12-04T07:20:10.572Z,12.40
2022-12-04T07:21:10.606Z,13.20
2022-12-04T07:22:10.557Z,12.60
2022-12-04T07:23:10.554Z,13.10
2022-12-04T07:24:10.544Z,12.50
2022-12-04T07:25:10.540Z,11.50
2022-12-04T07:26:10.531Z,12.70
2022-12-04T07:27:10.525Z,12.50
2022-12-04T07:28:10.524Z,12.90
2022-12-04T07:29:10.513Z,11.90
2022-12-04T07:30:15.479Z,12.50
2022-12-04T07:31:10.494Z,13.30
2022-12-04T07:32:10.547Z,13.00
2022-12-04T07:33:10.480Z,12.90
2022-12-04T07:34:10.493Z,13.30
2022-12-04T07:35:10.466Z,13.30
2022-12-04T07:36:10.455Z,13.30
2022-12-04T07:37:10.474Z,13.30
2022-12-04T07:38:10.443Z,12.70
2022-12-04T07:39:10.442Z,13.00
2022-12-04T07:40:10.428Z,12.80
2022-12-04T07:41:10.422Z,12.50
2022-12-04T07:42:10.414Z,13.00
2022-12-04T07:43:10.408Z,12.90
2022-12-04T07:44:10.401Z,13.00
2022-12-04T07:45:10.394Z,12.10
2022-12-04T07:46:10.521Z,12.40
2022-12-04T07:47:10.386Z,12.00
2022-12-04T07:48:10.373Z,11.80
2022-12-04T07:49:10.364Z,12.50
2022-12-04T07:50:10.355Z,12.30
2022-12-04T07:51:10.357Z,11.50
2022-12-04T07:52:10.343Z,12.20
2022-12-04T07:53:10.368Z,12.00
2022-12-04T07:54:10.331Z,12.60
2022-12-04T07:55:10.319Z,11.80
2022-12-04T07:56:10.311Z,13.00
2022-12-04T07:57:10.306Z,11.70
2022-12-04T07:58:10.300Z,11.90
2022-12-04T07:59:10.293Z,11.80
2022-12-04T08:00:10.282Z,12.60
2022-12-04T08:01:10.345Z,11.60
2022-12-04T08:02:10.270Z,11.90
2022-12-04T08:03:10.268Z,12.30
2022-12-04T08:04:10.312Z,12.30
2022-12-04T08:05:10.246Z,12.90
2022-12-04T08:06:10.236Z,11.90
2022-12-04T08:07:10.232Z,12.70
2022-12-04T08:08:10.293Z,11.60
2022-12-04T08:09:10.603Z,11.60
2022-12-04T08:10:10.216Z,12.40
2022-12-04T08:11:10.212Z,12.10
2022-12-04T08:12:10.196Z,12.20
2022-12-04T08:13:10.189Z,11.90
2022-12-04T08:14:10.181Z,12.80
2022-12-04T08:15:10.181Z,12.20
2022-12-04T08:16:10.179Z,12.20
2022-12-04T08:17:10.237Z,12.00
2022-12-04T08:18:10.154Z,11.60
2022-12-04T08:19:10.148Z,11.70
2022-12-04T08:20:10.136Z,10.90
2022-12-04T08:21:10.128Z,12.00
2022-12-04T08:22:10.130Z,11.80
2022-12-04T08:23:10.128Z,11.50
2022-12-04T08:24:10.112Z,11.80
2022-12-04T08:25:10.122Z,11.70
2022-12-04T08:26:10.106Z,11.40
2022-12-04T08:27:10.084Z,11.60
2022-12-04T08:28:10.076Z,11.60
2022-12-04T08:29:10.076Z,12.00
2022-12-04T08:30:10.072Z,11.80
2022-12-04T08:31:10.248Z,12.10
2022-12-04T08:32:10.049Z,11.80
2022-12-04T08:33:10.043Z,11.10
2022-12-04T08:34:10.034Z,11.10
2022-12-04T08:35:10.043Z,12.00
2022-12-04T08:36:10.022Z,11.60
2022-12-04T08:37:10.018Z,11.50
2022-12-04T08:38:10.026Z,11.90
2022-12-04T08:39:10.010Z,11.30
2022-12-04T08:40:09.989Z,11.80
2022-12-04T08:41:10.018Z,11.10
2022-12-04T08:42:09.976Z,12.10
2022-12-04T08:43:09.973Z,10.80
2022-12-04T08:44:10.162Z,11.70
2022-12-04T08:45:09.954Z,11.10
2022-12-04T08:46:10.055Z,11.80
2022-12-04T08:47:09.941Z,11.40
2022-12-04T08:48:09.931Z,11.70
2022-12-04T08:49:09.929Z,12.00
2022-12-04T08:50:09.920Z,12.30
2022-12-04T08:51:09.913Z,12.80
2022-12-04T08:52:09.901Z,11.60
2022-12-04T08:53:09.928Z,11.90
2022-12-04T08:54:09.899Z,11.80
2022-12-04T08:55:09.886Z,11.90
2022-12-04T08:56:09.882Z,12.50
2022-12-04T08:57:09.892Z,11.40
2022-12-04T08:58:09.860Z,12.20
2022-12-04T08:59:09.856Z,11.90
2022-12-04T09:00:09.862Z,11.50
2022-12-04T09:01:09.946Z,11.50
2022-12-04T09:02:09.928Z,12.30
2022-12-04T09:03:09.831Z,11.80
2022-12-04T09:04:09.925Z,12.00
2022-12-04T09:05:09.809Z,12.10
2022-12-04T09:06:09.803Z,12.00
2022-12-04T09:07:09.794Z,12.60
2022-12-04T09:08:09.870Z,12.50
2022-12-04T09:09:09.782Z,12.60
2022-12-04T09:10:09.779Z,12.70
2022-12-04T09:11:09.769Z,13.00
2022-12-04T09:12:09.756Z,12.50
2022-12-04T09:13:09.774Z,11.90
2022-12-04T09:14:09.753Z,12.60
2022-12-04T09:15:09.750Z,11.60
2022-12-04T09:16:09.816Z,12.20
2022-12-04T09:17:09.727Z,12.50
2022-12-04T09:18:09.720Z,11.80
2022-12-04T09:19:09.716Z,12.40
2022-12-04T09:20:09.711Z,12.40
2022-12-04T09:21:09.699Z,12.00
2022-12-04T09:22:09.687Z,12.10
2022-12-04T09:23:09.682Z,12.70
2022-12-04T09:24:09.671Z,12.10
2022-12-04T09:25:09.666Z,12.00
2022-12-04T09:26:09.659Z,12.10
2022-12-04T09:27:14.489Z,12.40
2022-12-04T09:28:09.643Z,12.40
2022-12-04T09:29:09.663Z,12.00
2022-12-04T09:30:09.629Z,13.10
2022-12-04T09:31:09.668Z,12.80
2022-12-04T09:32:09.619Z,12.10
2022-12-04T09:33:09.613Z,12.50
2022-12-04T09:34:09.602Z,12.10
2022-12-04T09:35:09.599Z,12.10
2022-12-04T09:36:09.596Z,12.60
2022-12-04T09:37:09.582Z,12.60
2022-12-04T09:38:09.574Z,12.00
2022-12-04T09:39:09.566Z,12.20
2022-12-04T09:40:09.556Z,12.00
2022-12-04T09:41:09.552Z,12.10
2022-12-04T09:42:09.545Z,13.00
2022-12-04T09:43:09.543Z,12.00
2022-12-04T09:44:09.529Z,12.20
2022-12-04T09:45:09.558Z,12.00
2022-12-04T09:46:09.605Z,12.10
2022-12-04T09:47:09.622Z,12.20
2022-12-04T09:48:09.503Z,12.20
2022-12-04T09:49:09.697Z,12.50
2022-12-04T09:50:09.499Z,12.70
2022-12-04T09:51:09.483Z,13.10
2022-12-04T09:52:09.472Z,12.80
2022-12-04T09:53:09.468Z,14.00
2022-12-04T09:54:09.458Z,12.30
2022-12-04T09:55:09.453Z,12.50
2022-12-04T09:56:09.442Z,12.10
2022-12-04T09:57:09.438Z,12.30
2022-12-04T09:58:09.431Z,12.80
2022-12-04T09:59:09.430Z,12.30
2022-12-04T10:00:09.415Z,11.80
2022-12-04T10:01:09.433Z,12.30
2022-12-04T10:02:09.565Z,13.20
2022-12-04T10:03:09.632Z,13.00
2022-12-04T10:04:09.439Z,13.30
2022-12-04T10:05:09.391Z,13.20
2022-12-04T10:06:09.372Z,12.60
2022-12-04T10:07:09.365Z,12.80
2022-12-04T10:08:09.458Z,12.90
2022-12-04T10:09:09.351Z,12.10
2022-12-04T10:10:09.412Z,12.40
2022-12-04T10:11:09.342Z,12.60
2022-12-04T10:12:09.330Z,13.10
2022-12-04T10:13:09.325Z,12.70
2022-12-04T10:14:09.317Z,12.80
2022-12-04T10:15:09.308Z,13.20
2022-12-04T10:16:09.347Z,12.70
2022-12-04T10:17:09.327Z,12.90
2022-12-04T10:18:09.284Z,13.10
2022-12-04T10:19:09.278Z,12.90
2022-12-04T10:20:09.271Z,13.20
2022-12-04T10:21:09.265Z,13.10
2022-12-04T10:22:09.255Z,12.80
2022-12-04T10:23:13.528Z,13.10
2022-12-04T10:24:09.241Z,14.00
2022-12-04T10:25:09.235Z,12.90
2022-12-04T10:26:09.235Z,13.50
2022-12-04T10:27:09.225Z,13.10
2022-12-04T10:28:09.212Z,12.80
2022-12-04T10:29:09.207Z,13.10
2022-12-04T10:30:09.202Z,13.60
2022-12-04T10:31:09.231Z,13.20
2022-12-04T10:32:09.184Z,13.50
2022-12-04T10:33:09.202Z,13.40
2022-12-04T10:34:09.178Z,13.50
2022-12-04T10:35:09.163Z,13.30
2022-12-04T10:36:09.153Z,13.70
2022-12-04T10:37:09.148Z,13.10
2022-12-04T10:38:09.144Z,13.40
2022-12-04T10:39:09.136Z,12.80
2022-12-04T10:40:09.125Z,13.30
2022-12-04T10:41:14.665Z,13.50
2022-12-04T10:42:09.111Z,13.60
2022-12-04T10:43:09.109Z,13.40
2022-12-04T10:44:09.096Z,13.40
2022-12-04T10:45:09.095Z,13.90
2022-12-04T10:46:09.122Z,12.80
2022-12-04T10:47:09.186Z,13.50
2022-12-04T10:48:09.069Z,14.00
2022-12-04T10:49:09.144Z,13.70
2022-12-04T10:50:09.055Z,13.00
2022-12-04T10:51:09.051Z,13.80
2022-12-04T10:52:09.038Z,13.70
2022-12-04T10:53:13.642Z,13.10
2022-12-04T10:54:09.028Z,14.00
2022-12-04T10:55:09.017Z,13.50
2022-12-04T10:56:09.009Z,14.70
2022-12-04T10:57:09.013Z,13.80
2022-12-04T10:58:08.994Z,13.80
2022-12-04T10:59:08.989Z,13.70
2022-12-04T11:00:08.981Z,13.60
2022-12-04T11:01:08.974Z,13.80
2022-12-04T11:02:08.988Z,13.90
2022-12-04T11:03:09.034Z,13.20
2022-12-04T11:04:08.949Z,12.70
2022-12-04T11:05:08.963Z,13.40
2022-12-04T11:06:08.937Z,14.10
2022-12-04T11:07:08.929Z,12.90
2022-12-04T11:08:08.968Z,13.10
2022-12-04T11:09:08.913Z,13.60
2022-12-04T11:10:08.908Z,13.00
2022-12-04T11:11:08.899Z,13.30
2022-12-04T11:12:08.892Z,12.90
2022-12-04T11:13:08.883Z,13.50
2022-12-04T11:14:08.880Z,13.10
2022-12-04T11:15:08.872Z,13.50
2022-12-04T11:16:08.957Z,13.20
2022-12-04T11:17:08.857Z,13.10
2022-12-04T11:18:08.862Z,12.70
2022-12-04T11:19:08.842Z,13.80
2022-12-04T11:20:08.834Z,11.80
2022-12-04T11:21:08.852Z,13.50
2022-12-04T11:22:08.821Z,13.40
2022-12-04T11:23:08.819Z,14.10
2022-12-04T11:24:08.817Z,12.30
2022-12-04T11:25:08.799Z,13.30
2022-12-04T11:26:08.794Z,13.70
2022-12-04T11:27:08.786Z,13.80
2022-12-04T11:28:12.107Z,13.40
2022-12-04T11:29:08.770Z,13.60
2022-12-04T11:30:08.767Z,13.80
2022-12-04T11:31:08.802Z,13.40
2022-12-04T11:32:08.834Z,13.40
2022-12-04T11:33:08.740Z,13.90
2022-12-04T11:34:08.765Z,13.60
2022-12-04T11:35:08.726Z,13.30
2022-12-04T11:36:08.723Z,13.90
2022-12-04T11:37:08.737Z,13.90
2022-12-04T11:38:08.712Z,13.40
2022-12-04T11:39:08.697Z,13.20
2022-12-04T11:40:08.693Z,13.20
2022-12-04T11:41:08.684Z,13.10
2022-12-04T11:42:08.682Z,13.30
2022-12-04T11:43:08.669Z,13.70
2022-12-04T11:44:08.664Z,13.50
2022-12-04T11:45:08.657Z,13.10
2022-12-04T11:46:08.719Z,12.80
2022-12-04T11:47:08.740Z,13.70
2022-12-04T11:48:08.635Z,13.30
2022-12-04T11:49:08.628Z,12.70
2022-12-04T11:50:08.622Z,13.20
2022-12-04T11:51:08.612Z,13.10
2022-12-04T11:52:08.959Z,13.70
2022-12-04T11:53:08.623Z,14.20
2022-12-04T11:54:08.593Z,13.90
2022-12-04T11:55:08.584Z,13.20
2022-12-04T11:56:08.578Z,13.60
2022-12-04T11:57:08.581Z,13.60
2022-12-04T11:58:08.566Z,13.60
2022-12-04T11:59:08.557Z,13.20
2022-12-04T12:00:08.551Z,13.00
2022-12-04T12:01:08.542Z,13.10
2022-12-04T12:02:08.669Z,13.00
2022-12-04T12:03:08.613Z,13.40
2022-12-04T12:04:08.521Z,13.60
2022-12-04T12:05:08.516Z,13.40
2022-12-04T12:06:08.513Z,13.50
2022-12-04T12:07:08.501Z,13.70
2022-12-04T12:08:08.494Z,14.40
2022-12-04T12:09:08.510Z,14.20
2022-12-04T12:10:08.485Z,14.00
2022-12-04T12:11:08.473Z,14.60
2022-12-04T12:12:08.467Z,13.50
2022-12-04T12:13:08.458Z,13.50
2022-12-04T12:14:08.458Z,13.60
2022-12-04T12:15:08.447Z,13.90
2022-12-04T12:16:08.516Z,13.60
2022-12-04T12:17:08.431Z,13.70
2022-12-04T12:18:08.426Z,13.80
2022-12-04T12:19:08.441Z,14.30
2022-12-04T12:20:08.414Z,13.50
2022-12-04T12:21:08.402Z,14.20
2022-12-04T12:22:08.395Z,14.50
2022-12-04T12:23:08.396Z,14.50
2022-12-04T12:24:08.381Z,14.20
2022-12-04T12:25:08.403Z,15.00
2022-12-04T12:26:08.368Z,14.60
2022-12-04T12:27:08.363Z,14.50
2022-12-04T12:28:08.353Z,15.10
2022-12-04T12:29:08.344Z,15.30
2022-12-04T12:30:08.346Z,14.70
2022-12-04T12:31:08.341Z,14.70
2022-12-04T12:32:08.427Z,14.30
2022-12-04T12:33:08.322Z,15.90
2022-12-04T12:34:08.314Z,14.30
2022-12-04T12:35:08.306Z,14.10
2022-12-04T12:36:08.304Z,14.70
2022-12-04T12:37:08.291Z,14.30
2022-12-04T12:38:08.285Z,15.20
2022-12-04T12:39:08.282Z,14.60
2022-12-04T12:40:08.273Z,15.60
2022-12-04T12:41:08.288Z,15.10
2022-12-04T12:42:08.262Z,14.00
2022-12-04T12:43:08.312Z,14.00
2022-12-04T12:44:08.263Z,14.40
2022-12-04T12:45:08.239Z,13.60
2022-12-04T12:46:08.422Z,14.50
2022-12-04T12:47:08.227Z,13.90
2022-12-04T12:48:08.218Z,13.60
2022-12-04T12:49:08.210Z,13.60
2022-12-04T12:50:08.204Z,14.00
2022-12-04T12:51:29.144Z,14.70
2022-12-04T12:52:08.539Z,13.70